createdAt,value
2019-04-16T00:02:08.514Z,4.17
2019-04-16T00:04:53.632Z,4.15
2019-04-16T00:07:22.630Z,4.00
2019-04-16T00:10:08.985Z,4.25
2019-04-16T00:12:54.830Z,4.30
2019-04-16T00:15:23.315Z,4.50
2019-04-16T00:17:51.720Z,4.62
2019-04-16T00:20:20.144Z,4.10
2019-04-16T00:22:50.223Z,4.30
2019-04-16T00:25:18.626Z,4.90
2019-04-16T00:27:47.070Z,4.12
2019-04-16T00:30:16.743Z,4.28
2019-04-16T00:32:45.180Z,4.05
2019-04-16T00:35:15.768Z,4.20
2019-04-16T00:37:43.756Z,3.98
2019-04-16T00:40:12.368Z,4.35
2019-04-16T00:42:40.791Z,4.30
2019-04-16T00:45:09.490Z,3.93
2019-04-16T00:47:37.900Z,4.07
2019-04-16T00:50:07.661Z,4.57
2019-04-16T00:52:36.962Z,4.17
2019-04-16T00:55:06.751Z,4.43
2019-04-16T00:57:35.162Z,4.10
2019-04-16T01:00:06.601Z,4.67
2019-04-16T01:02:35.101Z,5.00
2019-04-16T01:05:04.759Z,4.37
2019-04-16T01:07:33.190Z,3.73
2019-04-16T01:10:01.602Z,3.95
2019-04-16T01:12:30.034Z,3.95
2019-04-16T01:15:00.620Z,4.40
2019-04-16T01:17:28.630Z,4.28
2019-04-16T01:19:57.052Z,4.20
2019-04-16T01:22:25.506Z,3.77
2019-04-16T01:24:53.948Z,4.35
2019-04-16T01:27:28.580Z,3.90
2019-04-16T01:29:54.162Z,3.58
2019-04-16T01:32:33.462Z,4.30
2019-04-16T01:35:06.137Z,3.83
2019-04-16T01:37:38.896Z,3.83
2019-04-16T01:40:09.397Z,3.70
2019-04-16T01:42:37.833Z,3.97
2019-04-16T01:45:07.596Z,4.15
2019-04-16T01:47:37.301Z,3.67
2019-04-16T01:50:07.150Z,4.07
2019-04-16T01:52:35.556Z,4.00
2019-04-16T01:55:04.944Z,3.87
2019-04-16T01:57:33.362Z,4.50
2019-04-16T02:00:06.788Z,3.90
2019-04-16T02:02:31.936Z,3.98
2019-04-16T02:05:00.357Z,3.80
2019-04-16T02:07:28.783Z,3.87
2019-04-16T02:09:57.198Z,4.07
2019-04-16T02:12:25.639Z,4.20
2019-04-16T02:14:54.076Z,3.87
2019-04-16T02:17:26.672Z,3.97
2019-04-16T02:19:52.653Z,4.17
2019-04-16T02:22:21.099Z,4.00
2019-04-16T02:24:49.585Z,4.37
2019-04-16T02:27:18.017Z,4.20
2019-04-16T02:29:46.465Z,3.70
2019-04-16T02:32:14.867Z,3.80
2019-04-16T02:34:43.308Z,4.40
2019-04-16T02:37:11.792Z,3.60
2019-04-16T02:39:48.948Z,3.57
2019-04-16T02:42:10.443Z,3.77
2019-04-16T02:44:38.897Z,4.58
2019-04-16T02:47:08.325Z,3.70
2019-04-16T02:49:37.192Z,3.70
2019-04-16T02:52:17.333Z,4.03
2019-04-16T02:54:47.530Z,3.72
2019-04-16T02:57:26.017Z,3.97
2019-04-16T02:59:51.013Z,4.00
2019-04-16T03:02:23.058Z,3.73
2019-04-16T03:04:58.413Z,4.07
2019-04-16T03:07:26.384Z,4.27
2019-04-16T03:10:01.077Z,3.77
2019-04-16T03:12:25.039Z,3.87
2019-04-16T03:14:53.525Z,4.07
2019-04-16T03:17:39.505Z,4.03
2019-04-16T03:20:10.691Z,3.83
2019-04-16T03:22:39.125Z,4.10
2019-04-16T03:25:12.347Z,4.13
2019-04-16T03:27:38.895Z,4.20
2019-04-16T03:30:08.168Z,4.33
2019-04-16T03:32:52.152Z,4.42
2019-04-16T03:35:25.156Z,3.97
2019-04-16T03:37:50.899Z,3.97
2019-04-16T03:40:24.768Z,4.17
2019-04-16T03:42:49.461Z,4.20
2019-04-16T03:45:17.891Z,4.00
2019-04-16T03:47:50.963Z,4.07
2019-04-16T03:50:16.462Z,4.23
2019-04-16T03:52:45.783Z,3.93
2019-04-16T03:55:14.403Z,3.80
2019-04-16T03:57:42.895Z,3.97
2019-04-16T04:00:12.992Z,4.10
2019-04-16T04:02:41.753Z,4.00
2019-04-16T04:05:10.231Z,4.50
2019-04-16T04:07:43.804Z,4.20
2019-04-16T04:10:09.969Z,4.10
2019-04-16T04:12:38.408Z,4.00
2019-04-16T04:15:07.018Z,4.00
2019-04-16T04:17:38.699Z,4.43
2019-04-16T04:20:09.338Z,4.13
2019-04-16T04:22:37.756Z,3.80
2019-04-16T04:25:07.599Z,4.47
2019-04-16T04:27:36.045Z,4.53
2019-04-16T04:30:06.483Z,4.20
2019-04-16T04:32:35.389Z,3.73
2019-04-16T04:35:05.755Z,4.13
2019-04-16T04:37:34.188Z,4.00
2019-04-16T04:40:02.610Z,4.13
2019-04-16T04:42:31.042Z,4.13
2019-04-16T04:44:59.476Z,4.50
2019-04-16T04:47:27.881Z,4.30
2019-04-16T04:49:56.319Z,4.07
2019-04-16T04:52:27.313Z,4.63
2019-04-16T04:54:54.973Z,4.57
2019-04-16T04:57:23.438Z,4.47
2019-04-16T04:59:51.866Z,3.87
2019-04-16T05:02:20.270Z,3.83
2019-04-16T05:04:59.028Z,4.50
2019-04-16T05:07:29.086Z,4.20
2019-04-16T05:09:57.589Z,3.97
2019-04-16T05:12:26.034Z,4.30
2019-04-16T05:14:57.803Z,4.10
2019-04-16T05:17:26.222Z,4.23
2019-04-16T05:19:54.654Z,4.33
2019-04-16T05:22:23.142Z,3.90
2019-04-16T05:24:51.591Z,3.77
2019-04-16T05:27:20.037Z,4.00
2019-04-16T05:29:49.578Z,4.07
2019-04-16T05:32:18.234Z,4.30
2019-04-16T05:34:46.661Z,4.00
2019-04-16T05:37:16.614Z,4.30
2019-04-16T05:39:45.218Z,4.23
2019-04-16T05:42:13.660Z,3.93
2019-04-16T05:44:42.067Z,3.93
2019-04-16T05:47:10.505Z,4.30
2019-04-16T05:49:38.944Z,4.00
2019-04-16T05:52:07.383Z,3.97
2019-04-16T05:54:55.160Z,4.17
2019-04-16T05:57:27.939Z,4.27
2019-04-16T05:59:56.359Z,3.85
2019-04-16T06:02:29.085Z,4.03
2019-04-16T06:04:57.505Z,3.90
2019-04-16T06:07:25.922Z,3.97
2019-04-16T06:09:54.330Z,4.17
2019-04-16T06:12:24.654Z,4.00
2019-04-16T06:14:54.744Z,3.95
2019-04-16T06:17:31.896Z,3.98
2019-04-16T06:20:04.819Z,3.80
2019-04-16T06:22:50.838Z,3.87
2019-04-16T06:25:27.124Z,3.93
2019-04-16T06:28:15.490Z,4.00
2019-04-16T06:31:04.971Z,3.90
2019-04-16T06:33:36.140Z,4.00
2019-04-16T06:36:09.121Z,3.47
2019-04-16T06:38:41.911Z,3.85
2019-04-16T06:41:12.009Z,3.80
2019-04-16T06:43:50.908Z,4.42
2019-04-16T06:46:20.963Z,3.92
2019-04-16T06:48:51.010Z,3.65
2019-04-16T06:51:27.127Z,3.98
2019-04-16T06:53:57.567Z,3.33
2019-04-16T06:56:43.117Z,3.80
2019-04-16T06:59:16.682Z,4.00
2019-04-16T07:01:47.371Z,3.70
2019-04-16T07:04:35.808Z,3.75
2019-04-16T07:07:22.566Z,3.67
2019-04-16T07:09:56.748Z,3.85
2019-04-16T07:12:22.860Z,3.65
2019-04-16T07:14:51.347Z,4.15
2019-04-16T07:17:19.758Z,4.05
2019-04-16T07:19:48.236Z,3.50
2019-04-16T07:22:20.726Z,4.10
2019-04-16T07:24:48.497Z,3.47
2019-04-16T07:27:20.046Z,3.85
2019-04-16T07:29:54.333Z,3.90
2019-04-16T07:32:32.930Z,3.95
2019-04-16T07:35:18.067Z,4.40
2019-04-16T07:37:48.144Z,3.60
2019-04-16T07:40:30.153Z,3.72
2019-04-16T07:43:16.319Z,3.90
2019-04-16T07:45:46.402Z,4.22
2019-04-16T07:48:16.469Z,4.03
2019-04-16T07:50:46.536Z,3.67
2019-04-16T07:53:22.081Z,4.10
2019-04-16T07:56:04.168Z,4.15
2019-04-16T07:58:32.608Z,4.08
2019-04-16T08:01:01.014Z,4.33
2019-04-16T08:03:29.415Z,3.90
2019-04-16T08:05:57.894Z,3.90
2019-04-16T08:08:26.283Z,3.98
2019-04-16T08:10:54.744Z,3.95
2019-04-16T08:13:23.725Z,3.92
2019-04-16T08:15:52.168Z,4.08
2019-04-16T08:18:20.600Z,3.95
2019-04-16T08:21:00.550Z,3.77
2019-04-16T08:23:39.672Z,3.50
2019-04-16T08:26:12.861Z,3.60
2019-04-16T08:28:38.404Z,3.75
2019-04-16T08:31:12.294Z,3.98
2019-04-16T08:33:38.643Z,3.65
2019-04-16T08:36:07.038Z,3.62
2019-04-16T08:38:35.473Z,4.03
2019-04-16T08:41:04.062Z,3.42
2019-04-16T08:43:32.473Z,4.05
2019-04-16T08:46:01.017Z,3.75
2019-04-16T08:48:29.430Z,3.77
2019-04-16T08:50:59.100Z,4.17
2019-04-16T08:53:27.583Z,3.65
2019-04-16T08:55:56.204Z,4.20
2019-04-16T08:58:24.725Z,3.58
2019-04-16T09:00:56.446Z,3.62
2019-04-16T09:03:26.880Z,3.95
2019-04-16T09:05:55.061Z,4.40
2019-04-16T09:08:36.964Z,3.60
2019-04-16T09:11:05.561Z,4.08
2019-04-16T09:13:41.112Z,3.77
2019-04-16T09:16:10.544Z,3.75
2019-04-16T09:18:58.720Z,3.02
2019-04-16T09:21:28.111Z,4.03
2019-04-16T09:24:14.243Z,4.08
2019-04-16T09:26:44.296Z,3.60
2019-04-16T09:29:26.156Z,3.52
2019-04-16T09:32:05.225Z,3.80
2019-04-16T09:34:51.186Z,4.10
2019-04-16T09:37:28.607Z,3.72
2019-04-16T09:39:58.975Z,3.77
2019-04-16T09:42:27.406Z,3.67
2019-04-16T09:44:55.846Z,3.58
2019-04-16T09:47:24.269Z,4.00
2019-04-16T09:49:52.689Z,3.77
2019-04-16T09:52:23.205Z,3.72
2019-04-16T09:54:51.406Z,3.95
2019-04-16T09:57:19.855Z,3.58
2019-04-16T09:59:49.920Z,4.22
2019-04-16T10:02:20.001Z,3.87
2019-04-16T10:04:48.407Z,3.95
2019-04-16T10:07:16.855Z,3.67
2019-04-16T10:09:45.288Z,3.67
2019-04-16T10:12:13.744Z,3.65
2019-04-16T10:14:42.541Z,3.70
2019-04-16T10:17:10.957Z,4.00
2019-04-16T10:19:43.020Z,3.60
2019-04-16T10:22:09.538Z,3.52
2019-04-16T10:24:55.966Z,3.47
2019-04-16T10:27:31.230Z,3.42
2019-04-16T10:29:56.173Z,3.35
2019-04-16T10:32:25.654Z,3.77
2019-04-16T10:34:54.115Z,3.90
2019-04-16T10:37:22.527Z,3.83
2019-04-16T10:40:05.024Z,3.35
2019-04-16T10:42:35.387Z,3.72
2019-04-16T10:45:22.515Z,3.90
2019-04-16T10:48:09.250Z,4.25
2019-04-16T10:50:42.279Z,3.55
2019-04-16T10:53:18.065Z,3.87
2019-04-16T10:56:04.138Z,3.92
2019-04-16T10:58:34.195Z,4.40
2019-04-16T11:01:09.964Z,3.62
2019-04-16T11:03:48.862Z,3.98
2019-04-16T11:06:18.997Z,3.90
2019-04-16T11:08:47.437Z,4.12
2019-04-16T11:11:15.952Z,3.95
2019-04-16T11:13:59.162Z,4.03
2019-04-16T11:16:17.084Z,4.58
2019-04-16T11:18:45.755Z,4.17
2019-04-16T11:21:14.239Z,3.67
2019-04-16T11:23:42.688Z,3.67
2019-04-16T11:26:11.210Z,4.22
2019-04-16T11:28:39.680Z,4.17
2019-04-16T11:31:15.577Z,4.20
2019-04-16T11:33:44.282Z,4.28
2019-04-16T11:36:19.533Z,3.98
2019-04-16T11:38:43.026Z,3.98
2019-04-16T11:41:11.565Z,4.05
2019-04-16T11:43:40.027Z,4.05
2019-04-16T11:46:08.532Z,4.33
2019-04-16T11:48:38.150Z,3.80
2019-04-16T11:51:06.729Z,4.20
2019-04-16T11:53:35.192Z,3.50
2019-04-16T11:56:03.796Z,3.72
2019-04-16T11:58:33.874Z,4.15
2019-04-16T12:01:04.805Z,4.10
2019-04-16T12:03:51.353Z,3.95
2019-04-16T12:06:37.385Z,3.87
2019-04-16T12:09:24.650Z,4.03
2019-04-16T12:11:57.614Z,4.78
2019-04-16T12:14:34.846Z,3.80
2019-04-16T12:17:05.185Z,3.95
2019-04-16T12:19:47.598Z,3.95
2019-04-16T12:22:32.389Z,3.60
2019-04-16T12:25:02.592Z,4.28
2019-04-16T12:27:35.700Z,4.20
2019-04-16T12:30:23.162Z,4.15
2019-04-16T12:32:58.742Z,4.17
2019-04-16T12:35:40.693Z,3.95
2019-04-16T12:38:34.486Z,3.95
2019-04-16T12:41:19.665Z,4.20
2019-04-16T12:44:05.950Z,4.10
2019-04-16T12:46:52.142Z,4.17
2019-04-16T12:49:38.484Z,4.28
2019-04-16T12:52:08.529Z,4.58
2019-04-16T12:54:58.524Z,4.17
2019-04-16T12:57:26.663Z,4.20
2019-04-16T12:59:56.727Z,4.20
2019-04-16T13:02:29.380Z,4.25
2019-04-16T13:04:59.447Z,4.58
2019-04-16T13:07:29.513Z,4.53
2019-04-16T13:10:08.682Z,4.70
2019-04-16T13:12:41.749Z,4.50
2019-04-16T13:15:21.330Z,3.92
2019-04-16T13:18:06.724Z,5.15
2019-04-16T13:20:39.541Z,3.77
2019-04-16T13:23:15.605Z,3.77
2019-04-16T13:26:02.005Z,3.62
2019-04-16T13:28:30.399Z,4.05
2019-04-16T13:30:59.022Z,4.22
2019-04-16T13:33:27.451Z,3.72
2019-04-16T13:35:55.900Z,3.45
2019-04-16T13:38:28.647Z,3.67
2019-04-16T13:40:57.094Z,4.05
2019-04-16T13:43:29.995Z,4.17
2019-04-16T13:45:58.870Z,3.90
2019-04-16T13:48:31.463Z,4.20
2019-04-16T13:51:01.552Z,3.67
2019-04-16T13:53:37.611Z,3.60
2019-04-16T13:56:19.384Z,3.77
2019-04-16T13:58:49.536Z,4.40
2019-04-16T14:01:28.628Z,3.45
2019-04-16T14:03:57.205Z,3.40
2019-04-16T14:06:25.755Z,3.50
2019-04-16T14:08:54.175Z,4.50
2019-04-16T14:11:22.655Z,3.75
2019-04-16T14:13:51.089Z,3.70
2019-04-16T14:16:19.508Z,3.47
2019-04-16T14:18:47.936Z,4.47
2019-04-16T14:21:16.376Z,3.60
2019-04-16T14:23:44.815Z,3.87
2019-04-16T14:26:14.870Z,3.60
2019-04-16T14:28:51.954Z,4.05
2019-04-16T14:31:16.390Z,3.35
2019-04-16T14:33:48.098Z,3.87
2019-04-16T14:36:16.507Z,3.58
2019-04-16T14:39:06.811Z,3.60
2019-04-16T14:41:33.054Z,3.67
2019-04-16T14:44:03.537Z,3.85
2019-04-16T14:46:32.261Z,3.47
2019-04-16T14:49:00.696Z,3.60
2019-04-16T14:51:29.111Z,3.62
2019-04-16T14:54:02.052Z,3.87
2019-04-16T14:56:37.768Z,4.12
2019-04-16T14:59:07.950Z,3.70
2019-04-16T15:01:38.013Z,3.58
2019-04-16T15:04:11.258Z,4.12
2019-04-16T15:06:53.676Z,3.80
2019-04-16T15:09:23.695Z,3.90
2019-04-16T15:12:09.764Z,4.37
2019-04-16T15:14:39.842Z,3.50
2019-04-16T15:17:13.387Z,4.37
2019-04-16T15:19:52.596Z,4.28
2019-04-16T15:22:31.637Z,4.87
2019-04-16T15:25:07.711Z,4.67
2019-04-16T15:27:37.770Z,5.95
2019-04-16T15:30:11.132Z,6.12
2019-04-16T15:32:43.905Z,5.80
2019-04-16T15:35:17.098Z,5.80
2019-04-16T15:37:54.676Z,5.62
2019-04-16T15:40:40.545Z,6.85
2019-04-16T15:43:25.542Z,6.03
2019-04-16T15:46:24.834Z,6.05
2019-04-16T15:48:39.664Z,6.45
2019-04-16T15:51:26.155Z,16.25
2019-04-16T15:53:56.242Z,13.90
2019-04-16T15:56:26.330Z,25.35
2019-04-16T15:59:14.739Z,25.32
2019-04-16T16:02:02.861Z,28.12
2019-04-16T16:04:33.020Z,29.35
2019-04-16T16:07:03.312Z,26.20
2019-04-16T16:09:40.891Z,19.12
2019-04-16T16:12:11.093Z,21.33
2019-04-16T16:14:39.498Z,15.53
2019-04-16T16:17:08.054Z,15.48
2019-04-16T16:19:36.552Z,12.13
2019-04-16T16:22:05.164Z,11.73
2019-04-16T16:24:35.963Z,12.07
2019-04-16T16:27:03.746Z,9.70
2019-04-16T16:29:32.212Z,8.40
2019-04-16T16:32:00.656Z,8.40
2019-04-16T16:34:29.076Z,10.05
2019-04-16T16:36:57.543Z,8.43
2019-04-16T16:39:26.037Z,9.43
2019-04-16T16:41:54.822Z,8.73
2019-04-16T16:44:23.392Z,8.85
2019-04-16T16:46:58.028Z,8.85
2019-04-16T16:49:26.449Z,8.55
2019-04-16T16:52:12.645Z,8.33
2019-04-16T16:54:42.778Z,8.53
2019-04-16T16:57:15.273Z,9.15
2019-04-16T16:59:45.380Z,9.33
2019-04-16T17:02:24.752Z,8.73
2019-04-16T17:04:54.832Z,8.18
2019-04-16T17:07:23.412Z,8.78
2019-04-16T17:09:51.859Z,8.58
2019-04-16T17:12:20.280Z,10.10
2019-04-16T17:14:48.794Z,8.93
2019-04-16T17:17:17.202Z,9.78
2019-04-16T17:19:45.662Z,9.35
2019-04-16T17:22:14.636Z,8.63
2019-04-16T17:24:44.401Z,9.85
2019-04-16T17:27:12.834Z,28.07
2019-04-16T17:29:41.319Z,16.52
2019-04-16T17:32:09.905Z,11.12
2019-04-16T17:34:39.824Z,12.55
2019-04-16T17:37:08.507Z,10.35
2019-04-16T17:39:47.367Z,10.08
2019-04-16T17:42:17.489Z,11.08
2019-04-16T17:45:03.957Z,11.73
2019-04-16T17:47:55.757Z,12.25
2019-04-16T17:50:24.292Z,15.00
2019-04-16T17:53:10.740Z,11.00
2019-04-16T17:55:43.512Z,7.70
2019-04-16T17:58:13.636Z,7.95
2019-04-16T18:00:43.816Z,11.60
2019-04-16T18:03:37.021Z,9.35
2019-04-16T18:06:03.767Z,8.53
2019-04-16T18:08:42.601Z,8.63
2019-04-16T18:11:12.707Z,9.18
2019-04-16T18:14:04.408Z,7.80
2019-04-16T18:16:33.748Z,8.23
2019-04-16T18:19:15.847Z,8.08
2019-04-16T18:21:45.929Z,7.08
2019-04-16T18:24:16.133Z,7.28
2019-04-16T18:26:48.970Z,8.45
2019-04-16T18:29:19.103Z,9.58
2019-04-16T18:32:01.409Z,9.73
2019-04-16T18:34:33.974Z,8.75
2019-04-16T18:37:20.361Z,9.03
2019-04-16T18:39:53.136Z,9.53
2019-04-16T18:42:25.698Z,9.35
2019-04-16T18:44:58.691Z,9.15
2019-04-16T18:47:34.521Z,8.73
2019-04-16T18:50:04.921Z,9.00
2019-04-16T18:52:36.708Z,9.45
2019-04-16T18:55:03.670Z,8.65
2019-04-16T18:57:32.061Z,8.50
2019-04-16T19:00:00.560Z,7.80
2019-04-16T19:02:30.720Z,8.10
2019-04-16T19:04:59.193Z,7.05
2019-04-16T19:07:27.719Z,7.92
2019-04-16T19:09:56.494Z,8.43
2019-04-16T19:12:25.192Z,7.62
2019-04-16T19:14:53.697Z,7.40
2019-04-16T19:17:22.498Z,7.83
2019-04-16T19:19:50.932Z,6.60
2019-04-16T19:22:19.443Z,7.40
2019-04-16T19:24:47.960Z,7.90
2019-04-16T19:27:16.624Z,8.35
2019-04-16T19:29:45.620Z,6.87
2019-04-16T19:32:14.638Z,7.28
2019-04-16T19:34:43.100Z,6.87
2019-04-16T19:37:11.550Z,6.37
2019-04-16T19:39:40.168Z,6.90
2019-04-16T19:42:11.218Z,6.47
2019-04-16T19:44:40.017Z,6.08
2019-04-16T19:47:09.069Z,6.15
2019-04-16T19:49:37.506Z,6.97
2019-04-16T19:52:06.015Z,5.70
2019-04-16T19:54:34.475Z,6.58
2019-04-16T19:57:02.953Z,5.90
2019-04-16T19:59:31.468Z,6.72
2019-04-16T20:02:01.814Z,5.92
2019-04-16T20:04:30.161Z,6.22
2019-04-16T20:07:00.906Z,6.60
2019-04-16T20:09:28.792Z,5.72
2019-04-16T20:11:57.217Z,6.72
2019-04-16T20:14:25.665Z,7.00
2019-04-16T20:16:54.100Z,5.20
2019-04-16T20:19:22.507Z,5.67
2019-04-16T20:21:51.004Z,5.05
2019-04-16T20:24:19.415Z,5.90
2019-04-16T20:26:47.863Z,5.42
2019-04-16T20:29:16.297Z,6.47
2019-04-16T20:31:44.738Z,5.42
2019-04-16T20:34:13.366Z,5.92
2019-04-16T20:36:41.753Z,5.58
2019-04-16T20:39:10.255Z,5.50
2019-04-16T20:41:38.720Z,5.42
2019-04-16T20:44:09.241Z,5.37
2019-04-16T20:46:37.349Z,4.78
2019-04-16T20:49:09.879Z,5.42
2019-04-16T20:51:36.024Z,5.08
2019-04-16T20:54:04.471Z,4.55
2019-04-16T20:56:32.948Z,4.20
2019-04-16T20:59:04.443Z,4.42
2019-04-16T21:01:35.270Z,4.62
2019-04-16T21:04:05.692Z,4.75
2019-04-16T21:06:32.001Z,4.10
2019-04-16T21:09:00.483Z,3.80
2019-04-16T21:11:28.908Z,3.90
2019-04-16T21:13:57.352Z,3.95
2019-04-16T21:16:25.769Z,3.52
2019-04-16T21:18:54.220Z,3.87
2019-04-16T21:21:23.348Z,3.55
2019-04-16T21:23:52.788Z,3.98
2019-04-16T21:26:21.199Z,3.87
2019-04-16T21:28:53.714Z,3.27
2019-04-16T21:31:23.861Z,3.47
2019-04-16T21:33:54.000Z,3.65
2019-04-16T21:36:26.521Z,3.50
2019-04-16T21:39:08.260Z,3.92
2019-04-16T21:41:36.722Z,3.05
2019-04-16T21:44:05.149Z,3.55
2019-04-16T21:46:33.579Z,3.30
2019-04-16T21:49:02.016Z,3.33
2019-04-16T21:51:30.449Z,3.15
2019-04-16T21:53:58.909Z,3.10
2019-04-16T21:56:27.295Z,3.25
2019-04-16T21:58:55.729Z,3.20
2019-04-16T22:01:37.751Z,2.83
2019-04-16T22:04:14.364Z,3.10
2019-04-16T22:06:41.317Z,3.17
2019-04-16T22:09:09.914Z,3.20
2019-04-16T22:11:43.454Z,3.40
2019-04-16T22:14:08.527Z,3.12
2019-04-16T22:16:36.951Z,3.22
2019-04-16T22:19:05.394Z,3.35
2019-04-16T22:21:33.845Z,2.87
2019-04-16T22:24:02.323Z,2.90
2019-04-16T22:26:34.488Z,2.67
2019-04-16T22:29:01.055Z,2.50
2019-04-16T22:31:29.503Z,2.83
2019-04-16T22:33:58.132Z,2.77
2019-04-16T22:36:26.721Z,3.10
2019-04-16T22:38:59.510Z,2.95
2019-04-16T22:41:38.404Z,3.02
2019-04-16T22:44:08.454Z,2.80
2019-04-16T22:46:41.015Z,2.80
2019-04-16T22:49:09.440Z,2.75
2019-04-16T22:51:39.774Z,2.70
2019-04-16T22:54:08.014Z,2.90
2019-04-16T22:56:43.825Z,3.20
2019-04-16T22:59:12.270Z,3.05
2019-04-16T23:01:44.901Z,3.35
2019-04-16T23:04:12.478Z,2.87
2019-04-16T23:06:40.994Z,2.50
2019-04-16T23:09:09.448Z,2.60
2019-04-16T23:11:39.174Z,2.75
2019-04-16T23:14:07.642Z,2.77
2019-04-16T23:16:41.858Z,3.08
2019-04-16T23:19:07.409Z,2.55
2019-04-16T23:21:35.866Z,2.30
2019-04-16T23:24:04.274Z,2.10
2019-04-16T23:26:33.388Z,2.37
2019-04-16T23:29:01.914Z,2.70
2019-04-16T23:31:30.374Z,2.27
2019-04-16T23:34:04.823Z,2.80
2019-04-16T23:36:28.943Z,2.85
2019-04-16T23:38:57.631Z,2.55
2019-04-16T23:41:26.160Z,2.42
2019-04-16T23:43:58.721Z,2.33
2019-04-16T23:46:45.148Z,2.80
2019-04-16T23:49:33.537Z,2.95
2019-04-16T23:52:03.924Z,2.75
2019-04-16T23:54:34.284Z,2.65
2019-04-16T23:57:04.545Z,2.47
2019-04-16T23:59:40.334Z,2.47
